Time;durP1;ratioP1;P1;durP2;ratioP2;P2;SDS_P1;SDS_P2;PMS_P1;PMS_P2;Temp;Humidity;BMP_temperature;BMP_pressure;BME280_temperature;BME280_humidity;BME280_pressure;Samples;Min_cycle;Max_cycle;Signal;HPM_P1;HPM_P2
2021/07/16 00:00:19;;;;;;;8.60;3.72;;;;;;;13.26;100.00;95858.94;1027563;28;20339;-66
2021/07/16 00:00:50;;;;;;;4.70;4.10;;;;;;;13.30;100.00;95862.59;1024679;28;20023;-65
2021/07/16 00:01:23;;;;;;;8.18;4.30;;;;;;;13.28;100.00;95869.19;1025074;28;20315;-66
2021/07/16 00:01:54;;;;;;;4.55;3.50;;;;;;;13.31;100.00;95861.56;1022521;28;20531;-64
2021/07/16 00:02:25;;;;;;;7.03;3.97;;;;;;;13.29;100.00;95863.66;1016353;29;20287;-66
2021/07/16 00:02:56;;;;;;;5.10;2.90;;;;;;;13.28;100.00;95867.38;1016343;29;20039;-66
2021/07/16 00:03:26;;;;;;;7.88;3.00;;;;;;;13.28;100.00;95866.56;1015999;29;20065;-66
2021/07/16 00:03:56;;;;;;;3.15;2.85;;;;;;;13.26;100.00;95864.22;1016465;29;20170;-66
2021/07/16 00:04:27;;;;;;;5.13;3.00;;;;;;;13.29;100.00;95863.66;1019719;29;20038;-65
2021/07/16 00:04:57;;;;;;;4.78;2.10;;;;;;;13.27;100.00;95867.63;1019606;29;20043;-66
2021/07/16 00:05:28;;;;;;;4.95;2.38;;;;;;;13.07;100.00;95839.56;1027363;28;20038;-66
2021/07/16 00:05:58;;;;;;;6.20;3.22;;;;;;;13.24;100.00;95866.34;1031985;28;20117;-66
2021/07/16 00:06:29;;;;;;;3.55;2.00;;;;;;;13.25;100.00;95872.41;1031997;28;20042;-65
2021/07/16 00:06:59;;;;;;;2.50;1.75;;;;;;;13.23;100.00;95864.75;1027807;28;20049;-67
2021/07/16 00:07:30;;;;;;;8.02;2.45;;;;;;;13.25;100.00;95870.56;1019691;29;20365;-65
2021/07/16 00:08:00;;;;;;;4.00;1.70;;;;;;;13.15;100.00;95860.06;1020222;29;20106;-66
2021/07/16 00:08:31;;;;;;;2.80;2.00;;;;;;;13.23;100.00;95871.88;1015489;29;20666;-66
2021/07/16 00:09:04;;;;;;;3.25;1.23;;;;;;;13.25;100.00;95872.41;1019987;29;20031;-65
2021/07/16 00:09:35;;;;;;;4.30;1.40;;;;;;;13.24;100.00;95876.06;1022357;29;20680;-66
2021/07/16 00:10:07;;;;;;;2.25;1.25;;;;;;;13.24;100.00;95876.06;1020002;29;20263;-66
2021/07/16 00:10:38;;;;;;;1.20;1.10;;;;;;;13.23;100.00;95872.66;1025291;28;20121;-66
2021/07/16 00:11:08;;;;;;;2.58;1.65;;;;;;;13.23;100.00;95875.28;1031844;28;20299;-65
2021/07/16 00:11:39;;;;;;;5.20;1.50;;;;;;;13.23;100.00;95875.28;1027429;28;20041;-65
2021/07/16 00:12:09;;;;;;;9.02;2.13;;;;;;;13.23;100.00;95871.88;1023377;29;20023;-65
2021/07/16 00:12:40;;;;;;;3.90;2.13;;;;;;;13.24;100.00;95876.06;1023580;28;20031;-66
2021/07/16 00:13:10;;;;;;;5.18;2.75;;;;;;;13.22;100.00;95873.72;1019847;29;20031;-66
2021/07/16 00:13:40;;;;;;;5.28;2.50;;;;;;;13.24;100.00;95876.88;1026312;28;20039;-66
2021/07/16 00:14:14;;;;;;;3.20;2.88;;;;;;;13.24;100.00;95882.16;1024318;28;20027;-66
2021/07/16 00:14:44;;;;;;;8.98;3.47;;;;;;;13.19;100.00;95869.00;1024393;28;20287;-66
2021/07/16 00:15:16;;;;;;;4.05;3.38;;;;;;;13.18;100.00;95862.16;1029388;28;20026;-67
2021/07/16 00:15:49;;;;;;;8.07;3.92;;;;;;;13.25;100.00;95873.19;1023400;28;20015;-66
2021/07/16 00:16:19;;;;;;;11.80;4.10;;;;;;;13.25;100.00;95872.41;1024031;28;20790;-65
2021/07/16 00:16:50;;;;;;;16.05;3.67;;;;;;;13.24;100.00;95871.59;1024038;28;20745;-66
2021/07/16 00:17:20;;;;;;;10.48;4.47;;;;;;;13.24;100.00;95874.25;1028084;28;20075;-66
2021/07/16 00:17:51;;;;;;;5.38;4.63;;;;;;;13.22;100.00;95868.44;1036051;28;20033;-66
2021/07/16 00:18:21;;;;;;;9.52;5.22;;;;;;;13.22;100.00;95873.72;1027783;28;20050;-66
2021/07/16 00:18:52;;;;;;;5.35;4.82;;;;;;;13.22;100.00;95878.97;1022744;29;20030;-66
2021/07/16 00:19:23;;;;;;;11.52;5.15;;;;;;;13.21;100.00;95872.13;1015943;29;20084;-66
2021/07/16 00:19:53;;;;;;;6.80;5.00;;;;;;;13.20;100.00;95875.81;1012313;29;20831;-66
2021/07/16 00:20:24;;;;;;;10.07;4.93;;;;;;;13.19;100.00;95874.25;1018418;28;20515;-66
2021/07/16 00:20:57;;;;;;;12.38;5.47;;;;;;;13.18;100.00;95872.69;1030364;28;20033;-66
2021/07/16 00:21:28;;;;;;;9.27;5.03;;;;;;;13.18;100.00;95870.06;1032405;28;20629;-66
2021/07/16 00:21:58;;;;;;;8.32;5.43;;;;;;;13.17;100.00;95871.09;1033778;28;20280;-66
2021/07/16 00:22:32;;;;;;;10.60;5.95;;;;;;;13.16;100.00;95874.81;1031380;28;20519;-68
2021/07/16 00:23:02;;;;;;;9.88;5.32;;;;;;;13.14;100.00;95867.16;1031918;28;20018;-67
2021/07/16 00:23:33;;;;;;;7.97;5.15;;;;;;;13.12;100.00;95868.53;1031643;28;20037;-65
2021/07/16 00:24:03;;;;;;;9.73;4.97;;;;;;;13.11;100.00;95866.94;1027865;28;20034;-66
2021/07/16 00:24:34;;;;;;;7.53;4.43;;;;;;;13.11;100.00;95875.66;1027858;28;20433;-66
2021/07/16 00:25:05;;;;;;;6.35;5.40;;;;;;;13.11;100.00;95866.94;1023569;28;20023;-66
2021/07/16 00:25:35;;;;;;;9.25;4.38;;;;;;;13.10;100.00;95868.00;1025021;28;20569;-66
2021/07/16 00:26:06;;;;;;;14.73;5.50;;;;;;;13.09;100.00;95872.50;1023735;28;20271;-67
2021/07/16 00:26:36;;;;;;;10.20;5.28;;;;;;;13.07;100.00;95871.19;1027806;28;20078;-66
2021/07/16 00:27:07;;;;;;;10.13;5.43;;;;;;;13.08;100.00;95872.78;1031644;28;20023;-66
2021/07/16 00:27:37;;;;;;;11.60;5.70;;;;;;;13.07;100.00;95871.19;1027492;28;20034;-66
2021/07/16 00:28:08;;;;;;;11.13;5.30;;;;;;;13.05;100.00;95873.31;1031721;28;20543;-65
2021/07/16 00:28:38;;;;;;;9.60;5.30;;;;;;;12.95;100.00;95864.41;1023787;28;20490;-67
2021/07/16 00:29:09;;;;;;;6.28;4.88;;;;;;;13.00;100.00;95870.72;1019126;29;20046;-66
2021/07/16 00:29:39;;;;;;;8.43;4.70;;;;;;;13.02;100.00;95873.88;1023876;29;20032;-67
2021/07/16 00:30:10;;;;;;;9.77;5.88;;;;;;;13.01;100.00;95874.91;1020150;28;20067;-65
2021/07/16 00:30:40;;;;;;;13.90;6.13;;;;;;;13.00;100.00;95874.13;1023913;28;20035;-65
2021/07/16 00:31:11;;;;;;;13.75;5.93;;;;;;;13.01;100.00;95875.72;1027281;28;20550;-66
2021/07/16 00:31:41;;;;;;;12.77;5.80;;;;;;;12.98;100.00;95871.78;1023067;29;20042;-65
2021/07/16 00:32:12;;;;;;;19.73;6.53;;;;;;;12.96;100.00;95876.53;1023641;29;20055;-67
2021/07/16 00:32:42;;;;;;;10.82;7.10;;;;;;;12.99;100.00;95872.56;1021058;28;20884;-67
2021/07/16 00:33:13;;;;;;;13.52;5.80;;;;;;;12.98;100.00;95873.63;1027719;28;20058;-66
2021/07/16 00:33:43;;;;;;;9.00;5.35;;;;;;;12.96;100.00;95871.25;1027782;28;20042;-66
2021/07/16 00:34:14;;;;;;;11.48;6.00;;;;;;;12.93;100.00;95874.44;1023640;28;20028;-65
2021/07/16 00:34:44;;;;;;;12.80;6.88;;;;;;;12.94;100.00;95873.41;1031849;28;20018;-66
2021/07/16 00:35:14;;;;;;;11.57;6.20;;;;;;;12.94;100.00;95876.03;1023808;29;20026;-66
2021/07/16 00:35:45;;;;;;;10.13;5.75;;;;;;;12.94;100.00;95873.41;1023722;28;20024;-66
2021/07/16 00:36:16;;;;;;;13.57;6.68;;;;;;;12.77;100.00;95846.63;1027320;28;20014;-66
2021/07/16 00:36:46;;;;;;;9.18;5.60;;;;;;;12.92;100.00;95874.72;1028213;28;20039;-66
2021/07/16 00:37:17;;;;;;;11.10;5.80;;;;;;;12.90;100.00;95867.06;1031738;28;20018;-67
2021/07/16 00:37:47;;;;;;;9.60;6.20;;;;;;;12.89;100.00;95867.38;1023364;29;20031;-66
2021/07/16 00:38:17;;;;;;;12.52;7.15;;;;;;;12.89;100.00;95872.63;1019786;29;20035;-66
2021/07/16 00:38:48;;;;;;;9.20;6.03;;;;;;;12.89;100.00;95870.78;1019905;29;20023;-66
2021/07/16 00:39:18;;;;;;;9.02;6.68;;;;;;;12.87;100.00;95864.97;1023667;28;20110;-67
2021/07/16 00:39:49;;;;;;;13.55;7.22;;;;;;;12.88;100.00;95865.81;1028206;28;20018;-64
2021/07/16 00:40:19;;;;;;;12.18;6.85;;;;;;;12.86;100.00;95867.91;1030278;28;20025;-65
2021/07/16 00:40:50;;;;;;;9.82;6.68;;;;;;;12.88;100.00;95869.22;1027166;28;20070;-65
2021/07/16 00:41:20;;;;;;;11.77;7.47;;;;;;;12.85;100.00;95861.06;1027660;28;20033;-66
2021/07/16 00:41:51;;;;;;;13.23;6.35;;;;;;;12.84;100.00;95862.13;1023668;28;20501;-66
2021/07/16 00:42:25;;;;;;;11.23;6.57;;;;;;;12.85;100.00;95869.75;1020014;29;20054;-66
2021/07/16 00:42:56;;;;;;;16.23;6.25;;;;;;;12.83;100.00;95861.34;1023727;29;20772;-66
2021/07/16 00:43:26;;;;;;;12.90;6.72;;;;;;;12.84;100.00;95865.53;1020639;28;20279;-66
2021/07/16 00:43:56;;;;;;;14.20;7.15;;;;;;;12.84;100.00;95870.00;1028393;28;20026;-66
2021/07/16 00:44:27;;;;;;;13.10;7.53;;;;;;;12.82;100.00;95870.31;1031329;28;20134;-66
2021/07/16 00:44:58;;;;;;;13.32;6.78;;;;;;;12.81;100.00;95874.00;1033158;28;20026;-66
2021/07/16 00:45:31;;;;;;;14.85;7.55;;;;;;;12.78;100.00;95877.19;1036768;28;20025;-67
2021/07/16 00:46:01;;;;;;;9.73;6.32;;;;;;;12.78;100.00;95869.28;1035941;28;20121;-66
2021/07/16 00:46:32;;;;;;;10.00;6.70;;;;;;;12.78;100.00;95877.19;1028196;28;20861;-66
2021/07/16 00:47:08;;;;;;;10.48;6.88;;;;;;;12.77;100.00;95872.16;1028064;28;20379;-66
2021/07/16 00:47:41;;;;;;;12.38;7.47;;;;;;;12.76;100.00;95868.75;1028141;28;20026;-66
2021/07/16 00:48:12;;;;;;;14.07;7.35;;;;;;;12.75;100.00;95875.09;1024346;28;20269;-66
2021/07/16 00:48:42;;;;;;;11.88;6.90;;;;;;;12.70;100.00;95861.94;1029083;28;20285;-66
2021/07/16 00:49:13;;;;;;;11.50;6.47;;;;;;;12.76;100.00;95873.25;1024360;28;20043;-66
2021/07/16 00:49:43;;;;;;;12.80;6.72;;;;;;;12.76;100.00;95879.28;1023246;29;20141;-66
2021/07/16 00:50:31;;;;;;;13.00;7.28;;;;;;;12.78;100.00;95873.75;1016103;29;20076;-66
2021/07/16 00:51:01;;;;;;;10.00;7.10;;;;;;;12.73;100.00;95862.19;1018516;29;20079;-66
2021/07/16 00:51:32;;;;;;;14.75;7.68;;;;;;;12.76;100.00;95871.38;1020285;29;20710;-66
2021/07/16 00:52:03;;;;;;;11.38;7.38;;;;;;;12.74;100.00;95871.69;1027912;28;20086;-66
2021/07/16 00:52:34;;;;;;;13.65;7.88;;;;;;;12.75;100.00;95869.81;1027431;28;20018;-67
2021/07/16 00:53:05;;;;;;;16.33;8.93;;;;;;;12.74;100.00;95874.31;1028039;28;20022;-66
2021/07/16 00:53:38;;;;;;;12.30;7.85;;;;;;;12.70;100.00;95868.00;1030759;28;20261;-67
2021/07/16 00:54:08;;;;;;;14.80;7.65;;;;;;;12.73;100.00;95871.94;1031225;28;20261;-65
2021/07/16 00:54:39;;;;;;;15.48;8.52;;;;;;;12.68;100.00;95864.06;1029235;28;20261;-66
2021/07/16 00:55:10;;;;;;;12.68;7.80;;;;;;;12.70;100.00;95875.09;1019773;29;20465;-65
2021/07/16 00:55:41;;;;;;;15.60;7.53;;;;;;;12.67;100.00;95870.38;1019868;29;20070;-65
2021/07/16 00:56:11;;;;;;;10.65;7.97;;;;;;;12.69;100.00;95870.91;1023205;29;20046;-66
2021/07/16 00:56:42;;;;;;;12.15;7.93;;;;;;;12.62;100.00;95865.16;1023313;28;20780;-67
2021/07/16 00:57:15;;;;;;;12.43;7.95;;;;;;;12.66;100.00;95871.44;1019486;29;20035;-65
2021/07/16 00:57:46;;;;;;;13.73;7.63;;;;;;;12.67;100.00;95868.53;1019773;29;20279;-66
2021/07/16 00:58:16;;;;;;;15.88;7.95;;;;;;;12.62;100.00;95862.53;1025014;28;20130;-65
2021/07/16 00:58:46;;;;;;;14.55;7.90;;;;;;;12.59;100.00;95860.44;1025086;28;20026;-66
2021/07/16 00:59:17;;;;;;;12.57;8.13;;;;;;;12.63;100.00;95867.50;1023320;29;20015;-66
2021/07/16 00:59:48;;;;;;;13.90;8.50;;;;;;;12.64;100.00;95870.91;1026355;28;20026;-65
2021/07/16 01:00:18;;;;;;;12.48;8.13;;;;;;;12.57;100.00;95863.31;1019372;29;20374;-66
2021/07/16 01:00:48;;;;;;;14.35;7.88;;;;;;;12.55;100.00;95854.16;1022946;29;20035;-65
2021/07/16 01:01:19;;;;;;;12.70;8.27;;;;;;;12.60;100.00;95867.25;1023612;29;20032;-66
2021/07/16 01:01:50;;;;;;;21.02;8.13;;;;;;;12.58;100.00;95870.19;1011923;29;20021;-65
2021/07/16 01:02:20;;;;;;;23.83;8.68;;;;;;;12.57;100.00;95865.16;1015451;29;20065;-67
2021/07/16 01:02:54;;;;;;;19.08;8.88;;;;;;;12.56;100.00;95868.88;1022013;29;20053;-66
2021/07/16 01:03:24;;;;;;;14.25;7.97;;;;;;;12.56;100.00;95868.88;1020875;29;20119;-66
2021/07/16 01:03:58;;;;;;;13.35;7.75;;;;;;;12.54;100.00;95857.81;1011178;29;20276;-65
2021/07/16 01:04:28;;;;;;;20.48;8.52;;;;;;;12.48;100.00;95860.50;1016115;29;20159;-67
2021/07/16 01:04:58;;;;;;;15.77;8.40;;;;;;;12.56;100.00;95866.25;1021073;28;20271;-67
2021/07/16 01:05:30;;;;;;;14.35;8.77;;;;;;;12.54;100.00;95869.16;1023388;29;20492;-66
2021/07/16 01:06:02;;;;;;;15.75;9.10;;;;;;;12.50;100.00;95860.97;1019385;29;20027;-65
2021/07/16 01:06:32;;;;;;;16.50;8.43;;;;;;;12.46;100.00;95857.31;1014779;29;20272;-64
2021/07/16 01:07:05;;;;;;;17.67;8.20;;;;;;;12.54;100.00;95868.34;1019299;29;20271;-66
2021/07/16 01:07:37;;;;;;;16.55;8.80;;;;;;;12.48;100.00;95859.72;1015390;29;20424;-66
2021/07/16 01:08:07;;;;;;;19.52;8.48;;;;;;;12.52;100.00;95862.59;1023426;29;20263;-67
2021/07/16 01:08:38;;;;;;;12.00;6.95;;;;;;;12.50;100.00;95863.63;1018794;29;20776;-66
2021/07/16 01:09:08;;;;;;;17.25;8.18;;;;;;;12.49;100.00;95864.69;1023465;28;20027;-66
2021/07/16 01:09:39;;;;;;;16.80;7.88;;;;;;;12.50;100.00;95863.63;1023494;29;20023;-67
2021/07/16 01:10:10;;;;;;;10.65;7.88;;;;;;;12.52;100.00;95863.38;1015183;29;20028;-66
2021/07/16 01:10:40;;;;;;;10.48;7.35;;;;;;;12.53;100.00;95861.50;1015359;29;20509;-66
2021/07/16 01:11:11;;;;;;;19.77;8.45;;;;;;;12.53;100.00;95866.78;1023282;29;20019;-65
2021/07/16 01:11:41;;;;;;;15.27;8.32;;;;;;;12.50;100.00;95863.63;1015111;29;20508;-65
2021/07/16 01:12:11;;;;;;;13.48;8.00;;;;;;;12.50;100.00;95858.34;1023365;29;20018;-65
2021/07/16 01:12:50;;;;;;;20.40;8.50;;;;;;;12.48;100.00;95865.75;1023266;29;20030;-66
2021/07/16 01:13:21;;;;;;;19.83;9.30;;;;;;;12.46;100.00;95862.59;1020158;28;20020;-65
2021/07/16 01:13:54;;;;;;;14.75;7.70;;;;;;;12.47;100.00;95858.94;1022239;28;20283;-66
2021/07/16 01:14:24;;;;;;;14.95;7.95;;;;;;;12.48;100.00;95865.75;1025736;28;20254;-65
2021/07/16 01:14:55;;;;;;;13.45;7.53;;;;;;;12.47;100.00;95860.75;1023790;28;20094;-67
2021/07/16 01:15:27;;;;;;;15.05;7.32;;;;;;;12.48;100.00;95860.50;1023358;28;20094;-65
2021/07/16 01:15:57;;;;;;;10.73;7.65;;;;;;;12.50;100.00;95862.84;1027115;28;20102;-66
2021/07/16 01:16:28;;;;;;;12.95;7.53;;;;;;;12.49;100.00;95862.06;1027411;28;20254;-66
2021/07/16 01:16:59;;;;;;;19.98;8.32;;;;;;;12.51;100.00;95853.91;1023437;28;20023;-66
2021/07/16 01:17:32;;;;;;;13.10;7.85;;;;;;;12.50;100.00;95862.84;1030618;28;20036;-66
2021/07/16 01:18:03;;;;;;;14.57;7.75;;;;;;;12.44;100.00;95856.84;1027606;28;20011;-66
2021/07/16 01:18:33;;;;;;;14.50;7.60;;;;;;;12.47;100.00;95856.28;1024231;28;20255;-66
2021/07/16 01:19:04;;;;;;;16.58;7.97;;;;;;;12.47;100.00;95861.56;1029305;28;20016;-66
2021/07/16 01:19:52;;;;;;;14.95;8.15;;;;;;;12.45;100.00;95862.88;1031235;28;20022;-65
2021/07/16 01:20:25;;;;;;;12.45;7.13;;;;;;;12.39;100.00;95851.59;1027421;28;20017;-67
2021/07/16 01:20:55;;;;;;;13.23;7.40;;;;;;;12.43;100.00;95863.13;1021484;29;20354;-66
2021/07/16 01:21:27;;;;;;;16.15;7.65;;;;;;;12.42;100.00;95853.66;1019287;29;20263;-66
2021/07/16 01:21:58;;;;;;;12.50;7.05;;;;;;;12.41;100.00;95854.75;1014855;29;20630;-65
2021/07/16 01:22:30;;;;;;;18.92;8.32;;;;;;;12.40;100.00;95853.16;1019010;29;20757;-64
2021/07/16 01:23:07;;;;;;;15.45;7.97;;;;;;;12.42;100.00;95858.16;1019434;29;20284;-65
2021/07/16 01:23:41;;;;;;;16.95;7.55;;;;;;;12.43;100.00;95860.50;1019723;29;20290;-65
2021/07/16 01:24:12;;;;;;;13.90;7.88;;;;;;;12.41;100.00;95854.75;1020162;29;20301;-66
2021/07/16 01:24:42;;;;;;;13.40;7.75;;;;;;;12.41;100.00;95851.31;1024971;28;20657;-66
2021/07/16 01:25:20;;;;;;;20.13;8.35;;;;;;;12.38;100.00;95844.75;1023107;29;20029;-66
2021/07/16 01:25:51;;;;;;;12.35;6.88;;;;;;;12.42;100.00;95855.53;1020212;29;20027;-65
2021/07/16 01:26:21;;;;;;;17.30;8.77;;;;;;;12.40;100.00;95853.16;1023257;29;20678;-67
2021/07/16 01:26:52;;;;;;;11.30;7.82;;;;;;;12.41;100.00;95852.09;1019156;29;20268;-65
2021/07/16 01:27:22;;;;;;;15.00;7.47;;;;;;;12.42;100.00;95861.56;1019204;29;20027;-66
2021/07/16 01:27:57;;;;;;;15.65;8.10;;;;;;;12.36;100.00;95846.84;1023045;29;20027;-67
2021/07/16 01:28:28;;;;;;;17.25;8.25;;;;;;;12.41;100.00;95853.97;1023276;29;20051;-65
2021/07/16 01:29:03;;;;;;;13.98;7.70;;;;;;;12.39;100.00;95853.44;1023073;29;20327;-66
2021/07/16 01:29:34;;;;;;;15.07;7.35;;;;;;;12.40;100.00;95849.72;1025756;28;20278;-65
2021/07/16 01:30:07;;;;;;;14.35;8.15;;;;;;;12.38;100.00;95849.22;1023217;29;20628;-65
2021/07/16 01:30:38;;;;;;;16.85;8.40;;;;;;;12.37;100.00;95851.06;1021847;29;20259;-65
2021/07/16 01:31:08;;;;;;;11.35;7.47;;;;;;;12.37;100.00;95847.63;1017607;29;21631;-65
2021/07/16 01:31:40;;;;;;;21.88;8.77;;;;;;;12.37;100.00;95847.63;1015864;29;20017;-65
2021/07/16 01:32:18;;;;;;;21.27;7.65;;;;;;;12.33;100.00;95847.41;1019562;29;20513;-66
2021/07/16 01:32:48;;;;;;;15.23;7.60;;;;;;;12.32;100.00;95840.56;1026360;28;20285;-65
2021/07/16 01:33:19;;;;;;;14.00;7.60;;;;;;;12.33;100.00;95843.97;1028435;28;20274;-65
2021/07/16 01:33:50;;;;;;;12.27;7.93;;;;;;;12.31;100.00;95844.25;1026997;28;20022;-66
2021/07/16 01:34:20;;;;;;;16.83;7.28;;;;;;;12.32;100.00;95848.47;1023045;28;20306;-66
2021/07/16 01:34:51;;;;;;;13.23;7.45;;;;;;;12.31;100.00;95841.63;1023166;29;20039;-65
2021/07/16 01:35:22;;;;;;;18.80;8.18;;;;;;;12.30;100.00;95836.63;1023630;29;20028;-66
2021/07/16 01:35:52;;;;;;;12.52;7.50;;;;;;;12.23;100.00;95831.66;1023664;28;20050;-65
2021/07/16 01:36:23;;;;;;;14.52;7.20;;;;;;;12.26;100.00;95842.44;1031313;28;20284;-65
2021/07/16 01:36:53;;;;;;;16.08;7.35;;;;;;;12.26;100.00;95839.00;1023386;29;20079;-65
2021/07/16 01:37:24;;;;;;;20.35;7.63;;;;;;;12.27;100.00;95841.38;1019571;29;20020;-65
2021/07/16 01:37:54;;;;;;;13.63;6.93;;;;;;;12.20;100.00;95832.97;1016230;29;20028;-67
2021/07/16 01:38:28;;;;;;;15.15;6.15;;;;;;;12.18;100.00;95819.31;1023507;29;20019;-66
2021/07/16 01:38:58;;;;;;;14.93;6.93;;;;;;;12.25;100.00;95837.44;1019317;29;20698;-66
2021/07/16 01:39:29;;;;;;;15.77;6.85;;;;;;;12.26;100.00;95836.38;1020362;28;20052;-66
2021/07/16 01:40:00;;;;;;;15.82;7.53;;;;;;;12.26;100.00;95841.63;1019299;29;20120;-65
2021/07/16 01:40:36;;;;;;;12.10;6.45;;;;;;;12.25;100.00;95840.84;1026653;28;21030;-66
2021/07/16 01:41:06;;;;;;;13.20;6.95;;;;;;;12.26;100.00;95846.91;1022236;29;20031;-66
2021/07/16 01:41:37;;;;;;;10.70;7.05;;;;;;;12.23;100.00;95842.19;1017419;29;20810;-66
2021/07/16 01:42:08;;;;;;;10.77;7.00;;;;;;;12.26;100.00;95845.06;1018483;29;20473;-66
2021/07/16 01:42:40;;;;;;;13.43;7.00;;;;;;;12.24;100.00;95847.19;1023071;29;20417;-67
2021/07/16 01:43:10;;;;;;;18.02;7.30;;;;;;;12.23;100.00;95847.44;1018209;29;20841;-66
2021/07/16 01:43:41;;;;;;;11.43;6.30;;;;;;;12.27;100.00;95837.94;1017175;29;20275;-66
2021/07/16 01:44:12;;;;;;;13.10;7.50;;;;;;;12.27;100.00;95837.94;1021010;29;20031;-67
2021/07/16 01:44:42;;;;;;;15.45;7.75;;;;;;;12.24;100.00;95846.41;1024189;28;20704;-65
2021/07/16 01:45:14;;;;;;;17.35;6.75;;;;;;;12.26;100.00;95841.63;1026410;28;20472;-65
2021/07/16 01:45:47;;;;;;;9.77;7.00;;;;;;;12.27;100.00;95840.56;1026490;28;20151;-65
2021/07/16 01:46:18;;;;;;;11.63;6.70;;;;;;;12.27;100.00;95843.22;1022197;28;20267;-65
2021/07/16 01:46:48;;;;;;;11.13;7.38;;;;;;;12.29;100.00;95845.59;1019392;29;20307;-66
2021/07/16 01:47:19;;;;;;;15.05;7.00;;;;;;;12.27;100.00;95846.66;1023462;28;20106;-68
2021/07/16 01:48:17;;;;;;;14.05;7.25;;;;;;;12.30;100.00;95852.41;1026937;28;20039;-65
2021/07/16 01:48:47;;;;;;;11.15;6.30;;;;;;;12.30;100.00;95850.56;1034840;28;20033;-65
2021/07/16 01:49:20;;;;;;;15.05;7.22;;;;;;;12.31;100.00;95846.91;1027146;28;20657;-65
2021/07/16 01:49:51;;;;;;;16.85;6.68;;;;;;;12.28;100.00;95844.81;1026740;28;20064;-65
2021/07/16 01:50:22;;;;;;;11.70;7.00;;;;;;;12.30;100.00;95844.50;1018963;29;20259;-65
2021/07/16 01:50:52;;;;;;;14.13;7.10;;;;;;;12.31;100.00;95846.91;1019549;29;20164;-65
2021/07/16 01:51:22;;;;;;;11.30;7.20;;;;;;;12.32;100.00;95845.81;1022552;29;20285;-65
2021/07/16 01:51:53;;;;;;;15.43;7.70;;;;;;;12.29;100.00;95840.31;1017535;29;20497;-65
2021/07/16 01:52:24;;;;;;;15.63;7.45;;;;;;;12.28;100.00;95842.16;1018880;28;20506;-65
2021/07/16 01:52:54;;;;;;;15.70;7.72;;;;;;;12.30;100.00;95844.50;1018778;29;20482;-65
2021/07/16 01:53:24;;;;;;;10.18;6.80;;;;;;;12.29;100.00;95846.38;1015035;29;20032;-65
2021/07/16 01:53:56;;;;;;;14.07;7.25;;;;;;;12.28;100.00;95844.81;1015006;29;20028;-66
2021/07/16 01:54:26;;;;;;;17.60;8.50;;;;;;;12.27;100.00;95840.56;1018917;29;20047;-65
2021/07/16 01:54:57;;;;;;;13.50;8.48;;;;;;;12.27;100.00;95843.22;1018362;29;20816;-65
2021/07/16 01:55:30;;;;;;;12.80;7.40;;;;;;;12.25;100.00;95847.97;1019072;29;20032;-66
2021/07/16 01:56:04;;;;;;;16.98;7.90;;;;;;;12.26;100.00;95846.91;1026933;28;20027;-66
2021/07/16 01:56:34;;;;;;;16.27;7.97;;;;;;;12.18;100.00;95829.84;1026022;28;20357;-67
2021/07/16 01:57:04;;;;;;;19.70;9.30;;;;;;;12.26;100.00;95846.91;1023594;28;20275;-65
2021/07/16 01:57:35;;;;;;;19.88;9.90;;;;;;;12.23;100.00;95834.28;1026841;28;20102;-66
2021/07/16 01:58:08;;;;;;;28.48;11.57;;;;;;;12.30;100.00;95842.66;1022701;29;20478;-65
2021/07/16 01:58:39;;;;;;;31.83;12.55;;;;;;;12.35;100.00;95847.91;1022849;29;20087;-66
2021/07/16 01:59:10;;;;;;;19.88;10.65;;;;;;;12.28;100.00;95834.28;1018666;29;20280;-66
2021/07/16 01:59:40;;;;;;;23.63;10.93;;;;;;;12.34;100.00;95840.28;1022831;29;20042;-65
2021/07/16 02:00:11;;;;;;;23.95;9.60;;;;;;;12.32;100.00;95840.56;1020902;29;20035;-65
2021/07/16 02:00:45;;;;;;;15.93;8.50;;;;;;;12.30;100.00;95845.31;1022985;28;20493;-66
2021/07/16 02:01:16;;;;;;;21.35;10.88;;;;;;;12.30;100.00;95842.66;1019771;28;20271;-67
2021/07/16 02:01:46;;;;;;;17.73;8.60;;;;;;;12.30;100.00;95842.66;1026240;28;20831;-65
2021/07/16 02:02:17;;;;;;;20.30;8.70;;;;;;;12.29;100.00;95843.72;1022696;29;20263;-65
2021/07/16 02:02:49;;;;;;;19.55;10.05;;;;;;;12.28;100.00;95844.81;1019270;28;20114;-65
2021/07/16 02:03:19;;;;;;;22.95;10.65;;;;;;;12.30;100.00;95842.66;1026227;28;20027;-66
2021/07/16 02:03:50;;;;;;;16.55;9.07;;;;;;;12.31;100.00;95843.44;1026962;28;20315;-65
2021/07/16 02:04:21;;;;;;;19.13;10.00;;;;;;;12.30;100.00;95849.78;1026715;28;20125;-66
2021/07/16 02:04:51;;;;;;;14.48;8.68;;;;;;;12.32;100.00;95850.31;1025690;28;20030;-64
2021/07/16 02:05:22;;;;;;;21.20;10.65;;;;;;;12.32;100.00;95850.31;1025712;28;20031;-65
2021/07/16 02:05:52;;;;;;;20.77;9.43;;;;;;;12.31;100.00;95853.97;1026862;28;20026;-65
2021/07/16 02:06:22;;;;;;;23.13;10.02;;;;;;;12.30;100.00;95847.94;1030663;28;20066;-65
2021/07/16 02:06:57;;;;;;;18.77;9.95;;;;;;;12.29;100.00;95853.47;1026915;28;20035;-66
2021/07/16 02:07:28;;;;;;;20.20;9.73;;;;;;;12.29;100.00;95856.88;1030759;28;20841;-66
2021/07/16 02:08:15;;;;;;;15.15;8.85;;;;;;;12.30;100.00;95866.34;1027473;28;20257;-65
2021/07/16 02:08:45;;;;;;;18.48;9.25;;;;;;;12.29;100.00;95859.53;1026786;28;20114;-66
2021/07/16 02:09:18;;;;;;;17.70;9.23;;;;;;;12.29;100.00;95861.38;1026663;28;20254;-66
2021/07/16 02:09:49;;;;;;;16.90;9.85;;;;;;;12.29;100.00;95866.63;1029526;28;20763;-66
2021/07/16 02:10:20;;;;;;;22.75;10.07;;;;;;;12.25;100.00;95859.28;1031754;28;20483;-66
2021/07/16 02:10:52;;;;;;;21.65;10.00;;;;;;;12.27;100.00;95864.25;1030819;28;20256;-66
2021/07/16 02:11:23;;;;;;;28.80;10.23;;;;;;;12.29;100.00;95871.91;1026731;28;20235;-65
2021/07/16 02:11:57;;;;;;;20.20;9.60;;;;;;;12.26;100.00;95868.72;1021514;29;20374;-65
2021/07/16 02:12:28;;;;;;;25.48;10.55;;;;;;;12.27;100.00;95864.25;1023703;28;20517;-65
2021/07/16 02:13:07;;;;;;;25.95;10.68;;;;;;;12.20;100.00;95859.28;1027641;28;20262;-65
2021/07/16 02:13:38;;;;;;;26.60;10.15;;;;;;;12.27;100.00;95865.06;1031898;28;20101;-67
2021/07/16 02:14:08;;;;;;;20.70;9.25;;;;;;;12.26;100.00;95867.94;1030479;28;20270;-66
2021/07/16 02:14:39;;;;;;;30.30;9.85;;;;;;;12.24;100.00;95870.09;1030518;28;20914;-65
2021/07/16 02:15:17;;;;;;;20.33;9.80;;;;;;;12.22;100.00;95866.91;1030694;28;20018;-66
2021/07/16 02:15:48;;;;;;;17.00;8.82;;;;;;;12.19;100.00;95862.97;1026458;28;20038;-66
2021/07/16 02:16:19;;;;;;;22.38;9.82;;;;;;;12.19;100.00;95862.19;1022849;29;20267;-65
2021/07/16 02:16:50;;;;;;;17.52;9.15;;;;;;;12.25;100.00;95872.44;1018767;29;20743;-65
2021/07/16 02:17:20;;;;;;;24.23;10.38;;;;;;;12.21;100.00;95860.09;1019581;29;20035;-67
2021/07/16 02:17:54;;;;;;;21.83;9.85;;;;;;;12.30;100.00;95871.59;1022870;28;20482;-65
2021/07/16 02:18:24;;;;;;;23.48;9.90;;;;;;;12.32;100.00;95872.13;1027329;28;20011;-65
2021/07/16 02:18:55;;;;;;;25.65;9.93;;;;;;;12.31;100.00;95870.56;1026217;28;20259;-65
2021/07/16 02:19:26;;;;;;;16.58;8.82;;;;;;;12.24;100.00;95859.56;1022955;29;20024;-65
2021/07/16 02:19:56;;;;;;;20.00;8.50;;;;;;;12.36;100.00;95867.91;1022408;29;20031;-66
2021/07/16 02:20:28;;;;;;;38.85;12.73;;;;;;;12.39;100.00;95880.53;1022909;28;20042;-65
2021/07/16 02:20:59;;;;;;;32.60;11.85;;;;;;;12.37;100.00;95864.22;1029988;28;20046;-65
2021/07/16 02:21:29;;;;;;;19.98;10.13;;;;;;;12.40;100.00;95873.41;1026723;28;20266;-65
2021/07/16 02:22:06;;;;;;;20.17;9.70;;;;;;;12.42;100.00;95869.47;1022033;28;20029;-66
2021/07/16 02:22:36;;;;;;;21.25;9.05;;;;;;;12.42;100.00;95872.09;1025414;28;20473;-66
2021/07/16 02:23:15;;;;;;;29.20;10.30;;;;;;;12.37;100.00;95869.47;1023637;28;20267;-66
2021/07/16 02:23:45;;;;;;;23.70;9.45;;;;;;;12.41;100.00;95867.13;1030659;28;20030;-65
2021/07/16 02:24:16;;;;;;;16.38;7.97;;;;;;;12.47;100.00;95871.28;1019396;29;20271;-66
2021/07/16 02:24:47;;;;;;;22.13;9.52;;;;;;;12.48;100.00;95873.66;1019016;29;20035;-66
2021/07/16 02:25:18;;;;;;;19.08;9.00;;;;;;;12.49;100.00;95872.59;1019104;29;20771;-65